Time;durP1;ratioP1;P1;durP2;ratioP2;P2;SDS_P1;SDS_P2;PMS_P1;PMS_P2;Temp;Humidity;BMP_temperature;BMP_pressure;BME280_temperature;BME280_humidity;BME280_pressure;Samples;Min_cycle;Max_cycle;Signal;HPM_P1;HPM_P2
2023/06/12 00:00:51;;;;;;;;;;;20.20;92.00;;;;;;5090374;28;20389;-74
2023/06/12 00:03:17;;;;;;;;;;;20.10;92.00;;;;;;5078014;28;19924;-73
2023/06/12 00:05:43;;;;;;;;;;;20.10;92.00;;;;;;5094452;28;20354;-73
2023/06/12 00:08:11;;;;;;;;;;;20.10;92.30;;;;;;5094818;28;19927;-74
2023/06/12 00:10:38;;;;;;;;;;;20.00;92.20;;;;;;5076986;28;19923;-74
2023/06/12 00:13:03;;;;;;;;;;;20.00;92.30;;;;;;5077451;28;19928;-73
2023/06/12 00:15:29;;;;;;;;;;;19.90;92.20;;;;;;5060907;28;19928;-73
2023/06/12 00:17:54;;;;;;;;;;;19.90;92.10;;;;;;5094423;28;20002;-73
2023/06/12 00:20:20;;;;;;;;;;;19.90;92.30;;;;;;5077702;28;19924;-77
2023/06/12 00:22:46;;;;;;;;;;;19.80;92.30;;;;;;5111905;28;19931;-74
2023/06/12 00:25:11;;;;;;;;;;;19.80;92.40;;;;;;5094634;28;19924;-74
2023/06/12 00:27:37;;;;;;;;;;;19.80;92.50;;;;;;5077439;28;20043;-75
2023/06/12 00:30:04;;;;;;;;;;;19.70;92.40;;;;;;5094369;28;19924;-74
2023/06/12 00:32:29;;;;;;;;;;;19.60;92.50;;;;;;5112218;28;20292;-74
2023/06/12 00:34:55;;;;;;;;;;;19.60;92.70;;;;;;5077626;28;19924;-75
2023/06/12 00:37:24;;;;;;;;;;;19.50;92.80;;;;;;5094400;28;19924;-74
2023/06/12 00:39:50;;;;;;;;;;;19.50;92.80;;;;;;5077477;28;19928;-74
2023/06/12 00:42:16;;;;;;;;;;;19.40;93.00;;;;;;5077456;28;19923;-73
2023/06/12 00:44:41;;;;;;;;;;;19.30;93.00;;;;;;5093965;28;19973;-74
2023/06/12 00:47:07;;;;;;;;;;;19.30;93.20;;;;;;5079796;28;19924;-74
2023/06/12 00:49:33;;;;;;;;;;;19.30;93.10;;;;;;5080051;28;20022;-74
2023/06/12 00:51:58;;;;;;;;;;;19.20;93.10;;;;;;5064612;28;20142;-74
2023/06/12 00:54:25;;;;;;;;;;;19.20;93.10;;;;;;5081177;28;20034;-75
2023/06/12 00:56:51;;;;;;;;;;;19.20;93.10;;;;;;5081027;28;20372;-74
2023/06/12 00:59:19;;;;;;;;;;;19.20;93.20;;;;;;5080729;28;19923;-74
2023/06/12 01:01:45;;;;;;;;;;;19.10;93.30;;;;;;5064521;28;20358;-74
2023/06/12 01:04:10;;;;;;;;;;;19.10;93.20;;;;;;5097975;28;19931;-75
2023/06/12 01:06:44;;;;;;;;;;;19.10;93.40;;;;;;5080799;28;19924;-74
2023/06/12 01:09:17;;;;;;;;;;;19.00;93.60;;;;;;5097792;28;20424;-74
2023/06/12 01:11:44;;;;;;;;;;;19.00;93.60;;;;;;5080826;28;20314;-74
2023/06/12 01:14:14;;;;;;;;;;;19.00;93.70;;;;;;5098048;28;19928;-74
2023/06/12 01:16:40;;;;;;;;;;;18.90;93.70;;;;;;5097519;28;20284;-74
2023/06/12 01:19:06;;;;;;;;;;;18.80;93.80;;;;;;5080562;28;19930;-74
2023/06/12 01:21:33;;;;;;;;;;;18.80;93.80;;;;;;5080329;28;20022;-75
2023/06/12 01:24:20;;;;;;;;;;;18.80;94.30;;;;;;5097455;28;20392;-74
2023/06/12 01:26:51;;;;;;;;;;;18.70;94.10;;;;;;5080461;28;19924;-74
2023/06/12 01:29:26;;;;;;;;;;;18.70;94.30;;;;;;5080556;28;19924;-74
2023/06/12 01:32:03;;;;;;;;;;;18.60;94.30;;;;;;5097165;28;19919;-75
2023/06/12 01:34:36;;;;;;;;;;;18.60;94.70;;;;;;5080376;28;20292;-76
2023/06/12 01:37:07;;;;;;;;;;;18.50;94.70;;;;;;5080429;28;19932;-74
2023/06/12 01:39:39;;;;;;;;;;;18.40;94.70;;;;;;5096931;28;19924;-78
2023/06/12 01:42:07;;;;;;;;;;;18.40;94.70;;;;;;5097402;28;20014;-74
2023/06/12 01:44:33;;;;;;;;;;;18.30;95.00;;;;;;5114965;28;20015;-79
2023/06/12 01:46:58;;;;;;;;;;;18.30;95.10;;;;;;5096759;28;19924;-74
2023/06/12 01:49:24;;;;;;;;;;;18.30;95.30;;;;;;5097126;28;19931;-74
2023/06/12 01:51:49;;;;;;;;;;;18.20;95.60;;;;;;5063084;28;19928;-74
2023/06/12 01:54:15;;;;;;;;;;;18.20;95.30;;;;;;5080176;28;20316;-74
2023/06/12 01:56:42;;;;;;;;;;;18.10;95.70;;;;;;5096167;28;19931;-74
2023/06/12 01:59:08;;;;;;;;;;;18.10;95.40;;;;;;5096285;28;19982;-75
2023/06/12 02:01:34;;;;;;;;;;;18.00;95.60;;;;;;5096950;28;19932;-78
2023/06/12 02:04:00;;;;;;;;;;;18.00;95.80;;;;;;5079769;28;20179;-74
2023/06/12 02:06:25;;;;;;;;;;;17.90;95.90;;;;;;5080065;28;19924;-75
2023/06/12 02:08:52;;;;;;;;;;;17.90;95.90;;;;;;5096294;28;20292;-74
2023/06/12 02:11:17;;;;;;;;;;;17.90;96.10;;;;;;5114485;28;19963;-74
2023/06/12 02:13:43;;;;;;;;;;;17.80;96.30;;;;;;5079195;28;19994;-74
2023/06/12 02:16:08;;;;;;;;;;;17.70;96.50;;;;;;5079869;28;19923;-74
2023/06/12 02:18:34;;;;;;;;;;;17.70;97.10;;;;;;5063076;28;19924;-74
2023/06/12 02:20:59;;;;;;;;;;;17.60;97.10;;;;;;5078981;28;19935;-74
2023/06/12 02:23:25;;;;;;;;;;;17.50;97.40;;;;;;5079687;28;19924;-74
2023/06/12 02:25:51;;;;;;;;;;;17.50;97.30;;;;;;5096086;28;20008;-75
2023/06/12 02:28:16;;;;;;;;;;;17.40;97.40;;;;;;5079679;28;19924;-74
2023/06/12 02:30:42;;;;;;;;;;;17.40;98.10;;;;;;5078679;28;20008;-74
2023/06/12 02:33:09;;;;;;;;;;;17.30;97.90;;;;;;5096214;28;19924;-74
2023/06/12 02:35:38;;;;;;;;;;;17.30;97.90;;;;;;5096241;28;19924;-74
2023/06/12 02:38:04;;;;;;;;;;;17.30;98.30;;;;;;5079254;28;19924;-74
2023/06/12 02:40:29;;;;;;;;;;;17.20;98.30;;;;;;5062667;28;19977;-74
2023/06/12 02:42:55;;;;;;;;;;;17.20;98.50;;;;;;5078982;28;19924;-77
2023/06/12 02:45:21;;;;;;;;;;;17.20;98.50;;;;;;5095846;28;19931;-74
2023/06/12 02:47:47;;;;;;;;;;;17.20;98.60;;;;;;5095626;28;20010;-74
2023/06/12 02:50:13;;;;;;;;;;;17.10;99.40;;;;;;5078834;28;20031;-74
2023/06/12 02:52:40;;;;;;;;;;;17.10;99.00;;;;;;5079104;28;20280;-74
2023/06/12 02:55:06;;;;;;;;;;;17.10;98.90;;;;;;5078672;28;19972;-75
2023/06/12 02:57:32;;;;;;;;;;;17.00;99.00;;;;;;5078519;28;19931;-74
2023/06/12 02:59:58;;;;;;;;;;;17.00;99.10;;;;;;5095297;28;19960;-75
2023/06/12 03:02:23;;;;;;;;;;;17.00;99.10;;;;;;5078604;28;20329;-74
2023/06/12 03:04:49;;;;;;;;;;;17.00;99.30;;;;;;5078118;28;19935;-74
2023/06/12 03:07:16;;;;;;;;;;;17.00;99.50;;;;;;5095132;28;19924;-74
2023/06/12 03:09:45;;;;;;;;;;;17.00;99.50;;;;;;5060975;28;19923;-77
2023/06/12 03:12:11;;;;;;;;;;;17.00;99.90;;;;;;5078686;28;19924;-74
2023/06/12 03:14:38;;;;;;;;;;;17.00;99.80;;;;;;5095478;28;20015;-74
2023/06/12 03:17:04;;;;;;;;;;;17.00;99.90;;;;;;5095192;28;20238;-73
2023/06/12 03:19:30;;;;;;;;;;;16.90;99.90;;;;;;5095460;28;19951;-74
2023/06/12 03:21:56;;;;;;;;;;;16.90;99.90;;;;;;5078086;28;19931;-73
2023/06/12 03:24:21;;;;;;;;;;;16.80;99.90;;;;;;5095451;28;19923;-74
2023/06/12 03:26:47;;;;;;;;;;;16.80;99.90;;;;;;5078070;28;20377;-74
2023/06/12 03:29:13;;;;;;;;;;;16.80;99.90;;;;;;5094921;28;19978;-74
2023/06/12 03:31:38;;;;;;;;;;;16.80;99.90;;;;;;5095062;28;19927;-73
2023/06/12 03:34:04;;;;;;;;;;;16.70;99.90;;;;;;5061360;28;20302;-74
2023/06/12 03:36:33;;;;;;;;;;;16.70;99.90;;;;;;5077736;28;19924;-73
2023/06/12 03:38:59;;;;;;;;;;;16.70;99.90;;;;;;5078155;28;20335;-73
2023/06/12 03:41:27;;;;;;;;;;;16.60;99.90;;;;;;5078244;28;19931;-73
2023/06/12 03:43:52;;;;;;;;;;;16.70;99.90;;;;;;5077882;28;19998;-73
2023/06/12 03:46:18;;;;;;;;;;;16.70;99.90;;;;;;5077773;28;19986;-73
2023/06/12 03:48:44;;;;;;;;;;;16.70;99.90;;;;;;5094565;28;20295;-73
2023/06/12 03:51:09;;;;;;;;;;;16.60;99.90;;;;;;5077600;28;19923;-73
2023/06/12 03:53:35;;;;;;;;;;;16.60;99.90;;;;;;5077973;28;19924;-73
2023/06/12 03:56:00;;;;;;;;;;;16.60;99.90;;;;;;5094116;28;19924;-73
2023/06/12 03:58:26;;;;;;;;;;;16.60;99.90;;;;;;5077662;28;19930;-74
2023/06/12 04:00:52;;;;;;;;;;;16.60;99.90;;;;;;5077748;28;19924;-74
2023/06/12 04:03:18;;;;;;;;;;;16.70;99.90;;;;;;5077991;28;19946;-73
2023/06/12 04:05:44;;;;;;;;;;;16.60;99.90;;;;;;5077792;28;20355;-73
2023/06/12 04:08:10;;;;;;;;;;;16.70;99.90;;;;;;5061112;28;20010;-73
2023/06/12 04:10:36;;;;;;;;;;;16.70;99.90;;;;;;5094318;28;20330;-73
2023/06/12 04:13:01;;;;;;;;;;;16.70;99.90;;;;;;5077024;28;20041;-73
2023/06/12 04:15:28;;;;;;;;;;;16.70;99.90;;;;;;5061070;28;19977;-74
2023/06/12 04:17:55;;;;;;;;;;;16.70;99.90;;;;;;5077271;28;19924;-73
2023/06/12 04:20:20;;;;;;;;;;;16.70;99.90;;;;;;5094394;28;20330;-73
2023/06/12 04:22:47;;;;;;;;;;;16.80;99.90;;;;;;5094569;28;20003;-73
2023/06/12 04:25:13;;;;;;;;;;;16.80;99.90;;;;;;5077116;28;19927;-73
2023/06/12 04:27:40;;;;;;;;;;;16.90;99.90;;;;;;5060771;28;19924;-74
2023/06/12 04:30:06;;;;;;;;;;;16.90;99.90;;;;;;5076745;28;19967;-75
2023/06/12 04:32:32;;;;;;;;;;;17.00;99.90;;;;;;5094422;28;20435;-73
2023/06/12 04:34:58;;;;;;;;;;;16.90;99.90;;;;;;5094052;28;19924;-74
2023/06/12 04:37:25;;;;;;;;;;;17.00;99.90;;;;;;5077497;28;19947;-74
2023/06/12 04:39:52;;;;;;;;;;;17.10;99.90;;;;;;5094214;28;19923;-73
2023/06/12 04:42:18;;;;;;;;;;;17.20;99.90;;;;;;5093988;28;19924;-74
2023/06/12 04:44:46;;;;;;;;;;;17.30;99.90;;;;;;5093914;28;19924;-73
2023/06/12 04:47:14;;;;;;;;;;;17.40;99.90;;;;;;5077032;28;20277;-73
2023/06/12 04:49:40;;;;;;;;;;;17.60;99.90;;;;;;5076796;28;19945;-73
2023/06/12 04:52:06;;;;;;;;;;;17.90;99.90;;;;;;5093577;28;20343;-73
2023/06/12 04:54:35;;;;;;;;;;;18.40;99.90;;;;;;5094310;28;20019;-74
2023/06/12 04:57:07;;;;;;;;;;;19.20;99.90;;;;;;5093698;28;19924;-74
2023/06/12 04:59:38;;;;;;;;;;;19.90;99.90;;;;;;5093516;28;20010;-73
2023/06/12 05:02:06;;;;;;;;;;;20.60;99.90;;;;;;5093707;28;20262;-74
2023/06/12 05:04:32;;;;;;;;;;;21.20;99.90;;;;;;5076911;28;19931;-74
2023/06/12 05:06:59;;;;;;;;;;;21.60;99.90;;;;;;5093958;28;19928;-78
2023/06/12 05:09:25;;;;;;;;;;;21.90;99.10;;;;;;5077008;28;19924;-73
2023/06/12 05:11:51;;;;;;;;;;;22.20;99.70;;;;;;5077232;28;20010;-74
2023/06/12 05:14:16;;;;;;;;;;;22.50;98.60;;;;;;5093731;28;19967;-73
2023/06/12 05:16:46;;;;;;;;;;;22.80;98.90;;;;;;5093645;28;19931;-74
2023/06/12 05:19:12;;;;;;;;;;;23.00;97.70;;;;;;5076725;28;19997;-73
2023/06/12 05:21:41;;;;;;;;;;;23.20;97.70;;;;;;5093793;28;20419;-73
2023/06/12 05:24:07;;;;;;;;;;;23.30;96.50;;;;;;5093447;28;19924;-74
2023/06/12 05:26:33;;;;;;;;;;;23.60;97.20;;;;;;5076660;28;19931;-73
2023/06/12 05:28:58;;;;;;;;;;;23.90;96.60;;;;;;5060250;28;19923;-73
2023/06/12 05:31:24;;;;;;;;;;;24.30;96.00;;;;;;5059862;28;20010;-73
2023/06/12 05:33:49;;;;;;;;;;;24.70;95.70;;;;;;5080238;28;19934;-73
2023/06/12 05:36:15;;;;;;;;;;;25.10;95.80;;;;;;5080209;28;19924;-73
2023/06/12 05:38:46;;;;;;;;;;;25.40;94.30;;;;;;5080132;28;20369;-73
2023/06/12 05:41:12;;;;;;;;;;;25.70;94.50;;;;;;5080191;28;19936;-73
2023/06/12 05:43:38;;;;;;;;;;;25.80;95.00;;;;;;5080176;28;19979;-74
2023/06/12 05:46:04;;;;;;;;;;;26.10;93.20;;;;;;5079765;28;20014;-79
2023/06/12 05:48:30;;;;;;;;;;;26.50;93.80;;;;;;5080045;28;20004;-74
2023/06/12 05:50:56;;;;;;;;;;;26.60;94.00;;;;;;5080200;28;19949;-73
2023/06/12 05:53:21;;;;;;;;;;;26.60;93.70;;;;;;5114741;28;19974;-73
2023/06/12 05:55:47;;;;;;;;;;;26.70;93.60;;;;;;5079795;28;19941;-73
2023/06/12 05:58:12;;;;;;;;;;;26.70;91.90;;;;;;5062431;28;19972;-72
2023/06/12 06:00:40;;;;;;;;;;;26.90;92.80;;;;;;5096755;28;19924;-72
2023/06/12 06:03:06;;;;;;;;;;;27.10;93.00;;;;;;5096501;28;20429;-78
2023/06/12 06:05:32;;;;;;;;;;;27.10;92.20;;;;;;5079602;28;19930;-71
2023/06/12 06:07:57;;;;;;;;;;;27.50;92.40;;;;;;5079884;28;19924;-73
2023/06/12 06:10:23;;;;;;;;;;;27.80;92.30;;;;;;5078912;28;19924;-73
2023/06/12 06:12:50;;;;;;;;;;;28.00;91.50;;;;;;5096817;28;19931;-72
2023/06/12 06:15:16;;;;;;;;;;;28.30;91.70;;;;;;5079431;28;19924;-71
2023/06/12 06:17:41;;;;;;;;;;;29.00;91.80;;;;;;5079426;28;20357;-72
2023/06/12 06:20:08;;;;;;;;;;;29.00;91.00;;;;;;5079158;28;19924;-73
2023/06/12 06:22:34;;;;;;;;;;;29.10;91.30;;;;;;5095817;28;20376;-71
2023/06/12 06:24:59;;;;;;;;;;;29.40;90.90;;;;;;5096236;28;19973;-71
2023/06/12 06:27:25;;;;;;;;;;;29.30;90.80;;;;;;5078866;28;20460;-72
2023/06/12 06:29:50;;;;;;;;;;;29.30;91.30;;;;;;5096005;28;19968;-72
2023/06/12 06:32:17;;;;;;;;;;;29.50;91.00;;;;;;5079050;28;19927;-75
2023/06/12 06:34:42;;;;;;;;;;;29.80;90.70;;;;;;5079426;28;20394;-72
2023/06/12 06:37:08;;;;;;;;;;;30.10;90.10;;;;;;5096121;28;19924;-71
2023/06/12 06:39:34;;;;;;;;;;;30.10;90.70;;;;;;5095767;28;20365;-73
2023/06/12 06:41:59;;;;;;;;;;;30.40;90.60;;;;;;5095869;28;19927;-73
2023/06/12 06:44:25;;;;;;;;;;;30.40;89.20;;;;;;5077640;28;19924;-72
2023/06/12 06:46:51;;;;;;;;;;;30.70;90.20;;;;;;5062532;28;19923;-73
2023/06/12 06:49:16;;;;;;;;;;;31.00;89.40;;;;;;5061961;28;19924;-71
2023/06/12 06:51:42;;;;;;;;;;;31.40;89.70;;;;;;5078638;28;19977;-72
2023/06/12 06:54:07;;;;;;;;;;;31.70;89.50;;;;;;5095830;28;20344;-73
2023/06/12 06:56:33;;;;;;;;;;;31.90;89.30;;;;;;5113463;28;20056;-70
2023/06/12 06:58:59;;;;;;;;;;;31.70;87.60;;;;;;5095561;28;20008;-71
2023/06/12 07:01:24;;;;;;;;;;;31.60;86.70;;;;;;5113311;28;19924;-72
2023/06/12 07:03:50;;;;;;;;;;;32.10;87.70;;;;;;5095342;28;19923;-71
2023/06/12 07:06:15;;;;;;;;;;;32.40;87.50;;;;;;5076584;28;19927;-78
2023/06/12 07:08:41;;;;;;;;;;;32.60;86.70;;;;;;5109975;28;19924;-73
2023/06/12 07:11:07;;;;;;;;;;;32.90;85.00;;;;;;5078148;28;19973;-71
2023/06/12 07:13:32;;;;;;;;;;;32.90;85.90;;;;;;5095020;28;19987;-73
2023/06/12 07:15:58;;;;;;;;;;;32.90;83.80;;;;;;5094790;28;19930;-72
2023/06/12 07:18:23;;;;;;;;;;;33.10;84.20;;;;;;5093497;28;19928;-76
2023/06/12 07:20:49;;;;;;;;;;;33.40;85.00;;;;;;5111171;28;19969;-73
2023/06/12 07:23:15;;;;;;;;;;;33.60;84.80;;;;;;5095262;28;20254;-71
2023/06/12 07:25:40;;;;;;;;;;;33.90;83.90;;;;;;5112903;28;19923;-72
2023/06/12 07:28:06;;;;;;;;;;;33.80;83.30;;;;;;5094943;28;20381;-71
2023/06/12 07:30:33;;;;;;;;;;;33.90;83.20;;;;;;5094330;28;19927;-72
2023/06/12 07:32:59;;;;;;;;;;;33.80;83.50;;;;;;5077960;28;20015;-73
2023/06/12 07:35:25;;;;;;;;;;;33.70;84.20;;;;;;5091749;28;19924;-72
2023/06/12 07:37:51;;;;;;;;;;;33.30;84.00;;;;;;5112454;28;19930;-71
2023/06/12 07:40:17;;;;;;;;;;;33.40;84.00;;;;;;5094295;28;20387;-71
2023/06/12 07:42:42;;;;;;;;;;;33.60;84.10;;;;;;5094644;28;19924;-70
2023/06/12 07:45:08;;;;;;;;;;;34.00;83.00;;;;;;5112711;28;19927;-71
2023/06/12 07:47:34;;;;;;;;;;;33.90;83.50;;;;;;5077040;28;19923;-71
2023/06/12 07:49:59;;;;;;;;;;;33.80;83.00;;;;;;5077486;28;19934;-74
2023/06/12 07:52:25;;;;;;;;;;;33.90;82.90;;;;;;5092311;28;19924;-75
2023/06/12 07:54:51;;;;;;;;;;;34.10;82.80;;;;;;5075449;28;20515;-72
2023/06/12 07:57:16;;;;;;;;;;;33.90;82.50;;;;;;5094215;28;19924;-70
2023/06/12 07:59:44;;;;;;;;;;;34.20;82.80;;;;;;5093041;28;19924;-71
2023/06/12 08:02:10;;;;;;;;;;;34.10;82.50;;;;;;5112504;28;19928;-73
2023/06/12 08:04:40;;;;;;;;;;;34.40;82.00;;;;;;5061319;28;19923;-70
2023/06/12 08:07:10;;;;;;;;;;;34.80;82.10;;;;;;5095088;28;19978;-70
2023/06/12 08:09:40;;;;;;;;;;;34.90;82.00;;;;;;5093943;28;20275;-70
2023/06/12 08:12:06;;;;;;;;;;;34.90;82.00;;;;;;5076273;28;20365;-69
2023/06/12 08:14:32;;;;;;;;;;;35.10;81.10;;;;;;5091383;28;19973;-68
2023/06/12 08:16:58;;;;;;;;;;;35.20;81.00;;;;;;5077346;28;19924;-69
2023/06/12 08:19:24;;;;;;;;;;;35.30;80.00;;;;;;5094426;28;19924;-73
2023/06/12 08:21:50;;;;;;;;;;;35.20;79.90;;;;;;5060261;28;20418;-69
2023/06/12 08:24:16;;;;;;;;;;;35.30;79.50;;;;;;5112400;28;19927;-70
2023/06/12 08:26:41;;;;;;;;;;;35.40;80.40;;;;;;5093747;28;19927;-70
2023/06/12 08:29:08;;;;;;;;;;;35.20;79.50;;;;;;5060854;28;19969;-71
2023/06/12 08:31:34;;;;;;;;;;;35.00;80.40;;;;;;5077211;28;19930;-66
2023/06/12 08:34:00;;;;;;;;;;;34.90;80.00;;;;;;5093973;28;19975;-66
2023/06/12 08:36:26;;;;;;;;;;;35.10;79.40;;;;;;5094257;28;20203;-68
2023/06/12 08:38:51;;;;;;;;;;;35.30;79.50;;;;;;5094029;28;19931;-69
2023/06/12 08:41:18;;;;;;;;;;;35.50;80.10;;;;;;5093954;28;19923;-69
2023/06/12 08:43:45;;;;;;;;;;;35.70;78.50;;;;;;5076989;28;19924;-69
2023/06/12 08:46:10;;;;;;;;;;;35.60;78.80;;;;;;5077231;28;19924;-69
2023/06/12 08:48:36;;;;;;;;;;;35.50;78.40;;;;;;5093700;28;19931;-69
2023/06/12 08:51:02;;;;;;;;;;;35.60;79.60;;;;;;5094013;28;19923;-68
2023/06/12 08:53:28;;;;;;;;;;;35.60;79.20;;;;;;5077244;28;19924;-70
2023/06/12 08:55:55;;;;;;;;;;;35.60;78.10;;;;;;5077151;28;20383;-69
2023/06/12 08:58:21;;;;;;;;;;;35.80;78.10;;;;;;5111370;28;19930;-70
2023/06/12 09:00:47;;;;;;;;;;;35.50;78.60;;;;;;5093219;28;20021;-70
2023/06/12 09:03:13;;;;;;;;;;;35.40;78.70;;;;;;5077357;28;19923;-70
2023/06/12 09:05:39;;;;;;;;;;;35.50;78.60;;;;;;5093336;28;19928;-70
2023/06/12 09:08:05;;;;;;;;;;;35.40;78.30;;;;;;5079940;28;20466;-70
2023/06/12 09:10:35;;;;;;;;;;;35.30;78.10;;;;;;5064043;28;19927;-74
2023/06/12 09:13:05;;;;;;;;;;;35.10;77.80;;;;;;5097659;28;19928;-70
2023/06/12 09:15:32;;;;;;;;;;;34.70;77.10;;;;;;5097744;28;19931;-72
2023/06/12 09:17:57;;;;;;;;;;;34.70;77.50;;;;;;5097671;28;19974;-71
2023/06/12 09:20:26;;;;;;;;;;;34.60;76.90;;;;;;5097766;28;19959;-68
2023/06/12 09:22:51;;;;;;;;;;;34.70;77.10;;;;;;5115361;28;19924;-70
2023/06/12 09:25:18;;;;;;;;;;;34.70;76.90;;;;;;5097396;28;20034;-70
2023/06/12 09:27:44;;;;;;;;;;;34.60;76.70;;;;;;5097301;28;19975;-72
2023/06/12 09:30:10;;;;;;;;;;;34.50;76.00;;;;;;5097244;28;19924;-70
2023/06/12 09:32:36;;;;;;;;;;;34.30;76.30;;;;;;5097098;28;20299;-72
2023/06/12 09:35:03;;;;;;;;;;;34.20;77.20;;;;;;5097480;28;19924;-71
2023/06/12 09:37:29;;;;;;;;;;;34.20;78.00;;;;;;5080744;28;19934;-71
2023/06/12 09:40:11;;;;;;;;;;;34.20;77.90;;;;;;5096977;28;20006;-73
2023/06/12 09:42:38;;;;;;;;;;;34.30;77.80;;;;;;5115140;28;19924;-73
2023/06/12 09:45:13;;;;;;;;;;;34.40;77.80;;;;;;5097048;28;19930;-71
2023/06/12 09:47:40;;;;;;;;;;;34.40;77.30;;;;;;5079753;28;19924;-72
2023/06/12 09:50:05;;;;;;;;;;;34.40;77.40;;;;;;5097002;28;19930;-71
2023/06/12 09:52:31;;;;;;;;;;;34.10;77.40;;;;;;5080157;28;19924;-71
2023/06/12 09:54:57;;;;;;;;;;;33.70;78.10;;;;;;5096793;28;19920;-71
2023/06/12 09:57:23;;;;;;;;;;;33.60;78.50;;;;;;5080263;28;20026;-73
2023/06/12 09:59:49;;;;;;;;;;;33.60;78.90;;;;;;5079219;28;19923;-73
2023/06/12 10:02:15;;;;;;;;;;;33.30;78.70;;;;;;5096699;28;19923;-72
2023/06/12 10:04:44;;;;;;;;;;;33.30;78.10;;;;;;5079781;28;20318;-72
2023/06/12 10:07:13;;;;;;;;;;;33.00;77.90;;;;;;5080087;28;19927;-72
2023/06/12 10:09:39;;;;;;;;;;;32.70;78.50;;;;;;5079649;28;19928;-73
2023/06/12 10:12:05;;;;;;;;;;;32.40;78.60;;;;;;5079764;28;20337;-71
2023/06/12 10:14:31;;;;;;;;;;;32.00;79.10;;;;;;5096615;28;20399;-72
2023/06/12 10:16:57;;;;;;;;;;;31.80;80.10;;;;;;5096249;28;19924;-73
2023/06/12 10:19:24;;;;;;;;;;;31.60;79.90;;;;;;5096336;28;19924;-71
2023/06/12 10:21:52;;;;;;;;;;;31.40;79.30;;;;;;5096091;28;19924;-73
2023/06/12 10:24:18;;;;;;;;;;;31.30;79.10;;;;;;5096626;28;19931;-72
2023/06/12 10:26:43;;;;;;;;;;;31.20;80.10;;;;;;5114024;28;19924;-72
2023/06/12 10:29:32;;;;;;;;;;;31.10;79.10;;;;;;5096155;28;19928;-72
2023/06/12 10:32:07;;;;;;;;;;;31.00;80.00;;;;;;5095956;28;19924;-72
2023/06/12 10:34:34;;;;;;;;;;;30.90;80.20;;;;;;5096479;28;19923;-73
2023/06/12 10:37:21;;;;;;;;;;;31.00;80.00;;;;;;5095975;28;20010;-74
2023/06/12 10:39:47;;;;;;;;;;;30.90;79.80;;;;;;5078455;28;20065;-72
2023/06/12 10:42:12;;;;;;;;;;;31.00;79.70;;;;;;5079203;28;20354;-73
2023/06/12 10:44:42;;;;;;;;;;;31.10;79.70;;;;;;5096009;28;19931;-72
2023/06/12 10:47:21;;;;;;;;;;;31.00;79.10;;;;;;5078943;28;19923;-72
2023/06/12 10:50:03;;;;;;;;;;;30.90;79.40;;;;;;5078647;28;20285;-72
2023/06/12 10:52:28;;;;;;;;;;;30.90;79.10;;;;;;5095824;28;19924;-74
2023/06/12 10:55:13;;;;;;;;;;;30.90;79.60;;;;;;5095408;28;19930;-73
2023/06/12 10:57:39;;;;;;;;;;;30.80;80.00;;;;;;5095796;28;19923;-73
2023/06/12 11:00:10;;;;;;;;;;;30.70;79.80;;;;;;5113303;28;19924;-72
2023/06/12 11:02:36;;;;;;;;;;;30.70;79.40;;;;;;5095797;28;19924;-73
2023/06/12 11:05:02;;;;;;;;;;;30.60;80.40;;;;;;5095384;28;20298;-73
2023/06/12 11:07:29;;;;;;;;;;;30.60;80.50;;;;;;5113728;28;19923;-72
2023/06/12 11:09:55;;;;;;;;;;;30.80;80.90;;;;;;5095218;28;20035;-72
2023/06/12 11:12:21;;;;;;;;;;;31.00;79.80;;;;;;5078687;28;20396;-73
2023/06/12 11:14:46;;;;;;;;;;;30.90;79.60;;;;;;5113562;28;19928;-73
2023/06/12 11:17:13;;;;;;;;;;;30.80;79.10;;;;;;5095214;28;19930;-72
2023/06/12 11:19:39;;;;;;;;;;;30.80;80.40;;;;;;5078605;28;19950;-75
2023/06/12 11:22:05;;;;;;;;;;;30.90;80.00;;;;;;5078183;28;20373;-72
2023/06/12 11:24:31;;;;;;;;;;;30.90;80.50;;;;;;5061675;28;20318;-72
2023/06/12 11:27:00;;;;;;;;;;;31.00;79.30;;;;;;5094940;28;19930;-72
2023/06/12 11:29:29;;;;;;;;;;;31.00;79.80;;;;;;5094326;28;19924;-72
2023/06/12 11:32:01;;;;;;;;;;;30.80;79.50;;;;;;5094812;28;19923;-73
2023/06/12 11:34:36;;;;;;;;;;;30.90;79.30;;;;;;5095112;28;20381;-73
2023/06/12 11:37:15;;;;;;;;;;;30.80;79.80;;;;;;5077944;28;19931;-71
2023/06/12 11:39:40;;;;;;;;;;;30.80;80.00;;;;;;5095234;28;20022;-72
2023/06/12 11:42:07;;;;;;;;;;;30.90;78.50;;;;;;5077918;28;19955;-72
2023/06/12 11:44:32;;;;;;;;;;;31.00;78.20;;;;;;5061285;28;19931;-72
2023/06/12 11:46:58;;;;;;;;;;;31.00;77.90;;;;;;5094377;28;19924;-72
2023/06/12 11:49:24;;;;;;;;;;;30.90;77.80;;;;;;5077911;28;20006;-72
2023/06/12 11:51:50;;;;;;;;;;;30.80;78.40;;;;;;5094681;28;20280;-71
2023/06/12 11:54:16;;;;;;;;;;;30.80;78.60;;;;;;5076388;28;19924;-74
2023/06/12 11:56:42;;;;;;;;;;;30.80;79.10;;;;;;5090776;28;19923;-71
2023/06/12 11:59:07;;;;;;;;;;;30.90;77.30;;;;;;5077033;28;20369;-72
2023/06/12 12:01:37;;;;;;;;;;;31.00;76.50;;;;;;5094595;28;20026;-71
2023/06/12 12:04:05;;;;;;;;;;;31.00;77.30;;;;;;5094322;28;19931;-72
2023/06/12 12:06:31;;;;;;;;;;;30.80;77.90;;;;;;5077973;28;19946;-72
2023/06/12 12:08:58;;;;;;;;;;;30.80;77.90;;;;;;5077209;28;19924;-74
2023/06/12 12:11:27;;;;;;;;;;;30.80;78.10;;;;;;5077886;28;20331;-72
2023/06/12 12:13:58;;;;;;;;;;;30.90;77.90;;;;;;5094487;28;19931;-73
2023/06/12 12:16:24;;;;;;;;;;;31.00;77.90;;;;;;5077804;28;19946;-72
2023/06/12 12:18:50;;;;;;;;;;;31.10;77.80;;;;;;5077704;28;19931;-72
2023/06/12 12:21:16;;;;;;;;;;;31.00;77.60;;;;;;5094227;28;19923;-71
2023/06/12 12:23:42;;;;;;;;;;;30.90;78.10;;;;;;5094596;28;19976;-73
2023/06/12 12:26:12;;;;;;;;;;;30.90;76.90;;;;;;5077281;28;20005;-72
2023/06/12 12:28:37;;;;;;;;;;;30.80;77.10;;;;;;5094501;28;19928;-73
2023/06/12 12:31:03;;;;;;;;;;;30.70;76.30;;;;;;5076655;28;19956;-73
2023/06/12 12:33:29;;;;;;;;;;;30.70;76.40;;;;;;5094523;28;19927;-73
2023/06/12 12:35:57;;;;;;;;;;;30.70;76.60;;;;;;5077625;28;19924;-72
2023/06/12 12:38:23;;;;;;;;;;;30.80;76.40;;;;;;5077297;28;19924;-73
2023/06/12 12:40:48;;;;;;;;;;;30.80;76.20;;;;;;5078025;28;19930;-73
2023/06/12 12:43:14;;;;;;;;;;;30.90;76.20;;;;;;5098205;28;20022;-72
2023/06/12 12:45:40;;;;;;;;;;;30.80;75.80;;;;;;5081295;28;20330;-73
2023/06/12 12:48:05;;;;;;;;;;;30.80;76.10;;;;;;5098000;28;19930;-73
2023/06/12 12:50:31;;;;;;;;;;;30.80;76.20;;;;;;5064464;28;20270;-74
2023/06/12 12:52:57;;;;;;;;;;;30.90;75.80;;;;;;5098225;28;19924;-75
2023/06/12 12:55:22;;;;;;;;;;;30.90;75.70;;;;;;5080826;28;19973;-74
2023/06/12 12:57:48;;;;;;;;;;;30.80;75.80;;;;;;5097347;28;20445;-74
2023/06/12 13:00:14;;;;;;;;;;;30.80;76.00;;;;;;5097349;28;19936;-75
2023/06/12 13:02:41;;;;;;;;;;;30.80;76.10;;;;;;5098368;28;19927;-78
2023/06/12 13:05:08;;;;;;;;;;;30.90;76.70;;;;;;5080709;28;19946;-74
2023/06/12 13:07:36;;;;;;;;;;;31.00;76.60;;;;;;5081224;28;19923;-74
2023/06/12 13:10:02;;;;;;;;;;;30.90;76.30;;;;;;5080589;28;19946;-75
2023/06/12 13:12:28;;;;;;;;;;;30.80;77.20;;;;;;5079501;28;20042;-74
2023/06/12 13:14:54;;;;;;;;;;;30.90;77.30;;;;;;5097750;28;20452;-74
2023/06/12 13:17:19;;;;;;;;;;;30.80;77.60;;;;;;5080302;28;20082;-74
2023/06/12 13:19:45;;;;;;;;;;;30.70;77.60;;;;;;5064004;28;19935;-74
2023/06/12 13:22:11;;;;;;;;;;;30.80;77.80;;;;;;5080522;28;19924;-74
2023/06/12 13:24:36;;;;;;;;;;;31.00;77.90;;;;;;5097727;28;19937;-74
2023/06/12 13:27:03;;;;;;;;;;;31.00;77.20;;;;;;5080349;28;20283;-72
2023/06/12 13:29:28;;;;;;;;;;;31.00;77.00;;;;;;5096986;28;19923;-72
2023/06/12 13:31:54;;;;;;;;;;;30.80;77.10;;;;;;5097020;28;20344;-74
2023/06/12 13:34:20;;;;;;;;;;;30.70;77.20;;;;;;5061883;28;20396;-73
2023/06/12 13:36:46;;;;;;;;;;;30.60;77.20;;;;;;5080396;28;19953;-74
2023/06/12 13:39:12;;;;;;;;;;;30.60;77.00;;;;;;5095791;28;19966;-73
2023/06/12 13:41:37;;;;;;;;;;;30.50;77.20;;;;;;5079950;28;19936;-73
2023/06/12 13:44:06;;;;;;;;;;;30.50;77.10;;;;;;5097391;28;19973;-73
2023/06/12 13:46:31;;;;;;;;;;;30.60;76.70;;;;;;5096805;28;19930;-73
2023/06/12 13:48:58;;;;;;;;;;;30.60;76.70;;;;;;5079477;28;19924;-72
2023/06/12 13:51:24;;;;;;;;;;;30.60;76.70;;;;;;5096424;28;19923;-75
2023/06/12 13:53:53;;;;;;;;;;;30.60;76.70;;;;;;5079746;28;19976;-73
2023/06/12 13:56:19;;;;;;;;;;;30.60;76.90;;;;;;5096536;28;19923;-73
2023/06/12 13:58:45;;;;;;;;;;;30.70;76.30;;;;;;5096603;28;19931;-74
2023/06/12 14:01:11;;;;;;;;;;;30.70;75.10;;;;;;5079909;28;19924;-77
2023/06/12 14:03:36;;;;;;;;;;;30.60;75.50;;;;;;5080251;28;20297;-73
2023/06/12 14:06:02;;;;;;;;;;;30.50;75.60;;;;;;5063284;28;19947;-72
2023/06/12 14:08:28;;;;;;;;;;;30.40;75.00;;;;;;5079755;28;19923;-72
2023/06/12 14:10:54;;;;;;;;;;;30.30;76.00;;;;;;5079149;28;19927;-76
2023/06/12 14:13:19;;;;;;;;;;;30.30;76.20;;;;;;5096177;28;19924;-73